createdAt,value
2023-01-13T00:00:31.860Z,20
2023-01-13T00:01:33.346Z,20
2023-01-13T00:02:34.932Z,20
2023-01-13T00:03:36.547Z,20
2023-01-13T00:04:37.942Z,20
2023-01-13T00:05:39.525Z,20.1
2023-01-13T00:06:40.891Z,20
2023-01-13T00:07:42.260Z,20
2023-01-13T00:08:43.653Z,20.1
2023-01-13T00:09:45.026Z,20
2023-01-13T00:10:46.388Z,20
2023-01-13T00:11:47.767Z,20.1
2023-01-13T00:12:49.145Z,20.1
2023-01-13T00:13:50.641Z,20.1
2023-01-13T00:14:52.225Z,20.1
2023-01-13T00:15:53.640Z,20
2023-01-13T00:16:55.162Z,20
2023-01-13T00:17:56.636Z,20.1
2023-01-13T00:18:58.021Z,20
2023-01-13T00:19:59.396Z,20.1
2023-01-13T00:21:00.773Z,20
2023-01-13T00:22:02.175Z,20.1
2023-01-13T00:23:03.556Z,20.1
2023-01-13T00:24:04.966Z,20
2023-01-13T00:25:06.363Z,20
2023-01-13T00:26:07.781Z,20.1
2023-01-13T00:27:09.159Z,20
2023-01-13T00:28:10.594Z,20.1
2023-01-13T00:29:12.002Z,20
2023-01-13T00:30:13.414Z,20.1
2023-01-13T00:31:14.860Z,20
2023-01-13T00:32:16.456Z,20.1
2023-01-13T00:33:17.842Z,20.1
2023-01-13T00:34:19.350Z,20.1
2023-01-13T00:35:20.900Z,19.9
2023-01-13T00:36:22.274Z,20
2023-01-13T00:37:23.647Z,20
2023-01-13T00:38:25.052Z,20.1
2023-01-13T00:39:26.425Z,19.9
2023-01-13T00:40:27.829Z,20.1
2023-01-13T00:41:29.229Z,20.1
2023-01-13T00:42:30.604Z,20.1
2023-01-13T00:43:31.990Z,20
2023-01-13T00:44:33.353Z,20
2023-01-13T00:45:34.753Z,20
2023-01-13T00:46:36.266Z,20
2023-01-13T00:47:37.857Z,20
2023-01-13T00:48:39.287Z,20.1
2023-01-13T00:49:40.718Z,20.1
2023-01-13T00:50:42.115Z,20
2023-01-13T00:51:43.495Z,20
2023-01-13T00:52:44.886Z,20
2023-01-13T00:53:46.316Z,20
2023-01-13T00:54:47.690Z,19.9
2023-01-13T00:55:49.077Z,20
2023-01-13T00:56:50.450Z,20.1
2023-01-13T00:57:51.830Z,20.1
2023-01-13T00:58:53.244Z,20.1
2023-01-13T00:59:54.627Z,20.1
2023-01-13T01:00:56.182Z,19.9
2023-01-13T01:01:58.004Z,19.9
2023-01-13T01:02:59.773Z,19.9
2023-01-13T01:04:01.191Z,20
2023-01-13T01:05:02.613Z,20
2023-01-13T01:06:04.002Z,19.9
2023-01-13T01:07:05.419Z,20
2023-01-13T01:08:06.799Z,19.9
2023-01-13T01:09:08.265Z,19.9
2023-01-13T01:10:09.665Z,19.9
2023-01-13T01:11:11.073Z,19.8
2023-01-13T01:12:12.590Z,20
2023-01-13T01:13:14.004Z,20
2023-01-13T01:14:15.357Z,20
2023-01-13T01:15:16.772Z,20
2023-01-13T01:16:18.275Z,20
2023-01-13T01:17:19.950Z,19.8
2023-01-13T01:18:21.332Z,19.9
2023-01-13T01:19:22.738Z,19.9
2023-01-13T01:20:24.173Z,19.9
2023-01-13T01:21:25.557Z,19.9
2023-01-13T01:22:26.953Z,20
2023-01-13T01:23:28.345Z,19.9
2023-01-13T01:24:29.710Z,20
2023-01-13T01:25:31.121Z,20
2023-01-13T01:26:32.506Z,20.1
2023-01-13T01:27:33.919Z,20.1
2023-01-13T01:28:35.293Z,19.9
2023-01-13T01:29:36.705Z,19.9
2023-01-13T01:30:38.071Z,19.8
2023-01-13T01:31:39.513Z,20
2023-01-13T01:32:40.956Z,20
2023-01-13T01:33:42.335Z,20.1
2023-01-13T01:34:43.756Z,20.1
2023-01-13T01:35:45.168Z,20.1
2023-01-13T01:36:46.554Z,20.1
2023-01-13T01:37:47.983Z,20.1
2023-01-13T01:38:49.360Z,20
2023-01-13T01:39:50.756Z,20.1
2023-01-13T01:40:52.126Z,20
2023-01-13T01:41:53.511Z,20.1
2023-01-13T01:42:54.902Z,20.1
2023-01-13T01:43:56.328Z,20.1
2023-01-13T01:44:57.700Z,19.9
2023-01-13T01:45:59.073Z,20
2023-01-13T01:47:00.491Z,20.1
2023-01-13T01:48:01.933Z,20.1
2023-01-13T01:49:03.362Z,20.2
2023-01-13T01:50:04.781Z,20.1
2023-01-13T01:51:06.179Z,20.1
2023-01-13T01:52:07.565Z,20.1
2023-01-13T01:53:08.937Z,20.2
2023-01-13T01:54:10.323Z,20.2
2023-01-13T01:55:11.717Z,20.1
2023-01-13T01:56:13.096Z,20.2
2023-01-13T01:57:14.480Z,20.1
2023-01-13T01:58:15.850Z,20.2
2023-01-13T01:59:17.246Z,20.1
2023-01-13T02:00:18.649Z,20.1
2023-01-13T02:01:20.222Z,20.2
2023-01-13T02:02:21.828Z,20.1
2023-01-13T02:03:23.346Z,20.1
2023-01-13T02:04:24.718Z,20.1
2023-01-13T02:05:26.136Z,20.1
2023-01-13T02:06:27.538Z,20.1
2023-01-13T02:07:28.918Z,20.1
2023-01-13T02:08:30.292Z,20.1
2023-01-13T02:09:31.664Z,20.1
2023-01-13T02:10:33.038Z,20.1
2023-01-13T02:11:34.413Z,20.2
2023-01-13T02:12:35.793Z,20.1
2023-01-13T02:13:37.156Z,20.1
2023-01-13T02:14:38.530Z,20.1
2023-01-13T02:15:39.934Z,20.1
2023-01-13T02:16:41.409Z,20.1
2023-01-13T02:17:43.011Z,20.1
2023-01-13T02:18:44.426Z,20.1
2023-01-13T02:19:45.835Z,20.1
2023-01-13T02:20:47.249Z,20.1
2023-01-13T02:21:48.654Z,20.1
2023-01-13T02:22:50.031Z,20.2
2023-01-13T02:23:51.850Z,20.2
2023-01-13T02:24:53.254Z,20.1
2023-01-13T02:25:54.845Z,20.2
2023-01-13T02:26:56.342Z,20.1
2023-01-13T02:27:57.914Z,20.2
2023-01-13T02:28:59.322Z,20.1
2023-01-13T02:30:00.724Z,20
2023-01-13T02:31:02.141Z,20.1
2023-01-13T02:32:03.545Z,20.1
2023-01-13T02:33:04.937Z,20.2
2023-01-13T02:34:06.308Z,20.1
2023-01-13T02:35:07.684Z,20.1
2023-01-13T02:36:09.099Z,20.1
2023-01-13T02:37:10.505Z,20.1
2023-01-13T02:38:11.894Z,20
2023-01-13T02:39:13.292Z,20
2023-01-13T02:40:14.673Z,20.1
2023-01-13T02:41:16.069Z,20.1
2023-01-13T02:42:17.442Z,20.1
2023-01-13T02:43:18.841Z,20.1
2023-01-13T02:44:20.229Z,20.1
2023-01-13T02:45:21.600Z,20.1
2023-01-13T02:46:23.024Z,20.1
2023-01-13T02:47:24.429Z,20.1
2023-01-13T02:48:25.842Z,20
2023-01-13T02:49:27.220Z,20.1
2023-01-13T02:50:28.615Z,20.1
2023-01-13T02:51:30.034Z,20.1
2023-01-13T02:52:31.424Z,20.2
2023-01-13T02:53:32.829Z,20.1
2023-01-13T02:54:34.216Z,20.1
2023-01-13T02:55:35.594Z,20.1
2023-01-13T02:56:36.974Z,20.1
2023-01-13T02:57:38.348Z,20.1
2023-01-13T02:58:39.720Z,20
2023-01-13T02:59:41.105Z,20
2023-01-13T03:00:42.539Z,20.1
2023-01-13T03:01:44.041Z,20.1
2023-01-13T03:02:45.905Z,20.1
2023-01-13T03:03:47.488Z,20.1
2023-01-13T03:04:48.901Z,20.2
2023-01-13T03:05:50.345Z,20.2
2023-01-13T03:06:51.766Z,20
2023-01-13T03:07:53.190Z,20.2
2023-01-13T03:08:54.605Z,20.1
2023-01-13T03:09:55.997Z,20.1
2023-01-13T03:10:57.420Z,20.1
2023-01-13T03:11:58.824Z,20.1
2023-01-13T03:13:00.219Z,20.1
2023-01-13T03:14:01.631Z,20
2023-01-13T03:15:03.004Z,20.1
2023-01-13T03:16:04.444Z,20.2
2023-01-13T03:17:05.870Z,20.1
2023-01-13T03:18:07.290Z,20.1
2023-01-13T03:19:08.683Z,20.2
2023-01-13T03:20:10.087Z,20.1
2023-01-13T03:21:11.501Z,20.3
2023-01-13T03:22:12.923Z,20.1
2023-01-13T03:23:14.356Z,20.1
2023-01-13T03:24:15.750Z,20.2
2023-01-13T03:25:17.218Z,20.2
2023-01-13T03:26:18.955Z,20.1
2023-01-13T03:27:20.356Z,20.2
2023-01-13T03:28:21.753Z,20.1
2023-01-13T03:29:23.133Z,20.1
2023-01-13T03:30:24.607Z,20.1
2023-01-13T03:31:26.229Z,20.1
2023-01-13T03:32:27.733Z,20.1
2023-01-13T03:33:29.151Z,20.1
2023-01-13T03:34:31.233Z,20.1
2023-01-13T03:35:32.772Z,20.1
2023-01-13T03:36:34.185Z,20.1
2023-01-13T03:37:35.625Z,20.1
2023-01-13T03:38:37.039Z,20.1
2023-01-13T03:39:38.445Z,20.2
2023-01-13T03:40:39.837Z,20.1
2023-01-13T03:41:41.241Z,20.1
2023-01-13T03:42:42.664Z,20.1
2023-01-13T03:43:44.073Z,20.1
2023-01-13T03:44:45.470Z,20.3
2023-01-13T03:45:46.925Z,20.2
2023-01-13T03:46:48.576Z,20.2
2023-01-13T03:47:49.991Z,20.3
2023-01-13T03:48:51.404Z,20.3
2023-01-13T03:49:52.775Z,20.3
2023-01-13T03:50:54.168Z,20.1
2023-01-13T03:51:55.602Z,20.3
2023-01-13T03:52:57.027Z,20.1
2023-01-13T03:53:58.459Z,20.3
2023-01-13T03:54:59.863Z,20.3
2023-01-13T03:56:01.289Z,20.2
2023-01-13T03:57:02.721Z,20.2
2023-01-13T03:58:04.180Z,20.3
2023-01-13T03:59:05.943Z,20.3
2023-01-13T04:00:07.337Z,20.2
2023-01-13T04:01:08.870Z,20.2
2023-01-13T04:02:10.756Z,20.3
2023-01-13T04:03:12.624Z,20.3
2023-01-13T04:04:14.037Z,20.3
2023-01-13T04:05:15.440Z,20.2
2023-01-13T04:06:16.838Z,20.2
2023-01-13T04:07:18.317Z,20.3
2023-01-13T04:08:19.866Z,20.2
2023-01-13T04:09:21.292Z,20.3
2023-01-13T04:10:22.677Z,20.1
2023-01-13T04:11:24.080Z,20.3
2023-01-13T04:12:25.509Z,20.1
2023-01-13T04:13:26.917Z,20.3
2023-01-13T04:14:28.347Z,20.2
2023-01-13T04:15:29.773Z,20.2
2023-01-13T04:16:31.276Z,20.1
2023-01-13T04:17:32.996Z,20.2
2023-01-13T04:18:34.392Z,20.2
2023-01-13T04:19:35.776Z,20.2
2023-01-13T04:20:37.167Z,20.3
2023-01-13T04:21:38.579Z,20.2
2023-01-13T04:22:40.003Z,20.3
2023-01-13T04:23:41.433Z,20.2
2023-01-13T04:24:42.871Z,20.1
2023-01-13T04:25:44.271Z,20.1
2023-01-13T04:26:45.687Z,20.2
2023-01-13T04:27:47.133Z,20.1
2023-01-13T04:28:48.560Z,20.3
2023-01-13T04:29:49.976Z,20.3
2023-01-13T04:30:51.456Z,20.3
2023-01-13T04:31:53.193Z,20.3
2023-01-13T04:32:54.643Z,20.3
2023-01-13T04:33:56.059Z,20.3
2023-01-13T04:34:57.526Z,20.4
2023-01-13T04:35:59.386Z,20.3
2023-01-13T04:37:00.830Z,20.2
2023-01-13T04:38:02.198Z,20.2
2023-01-13T04:39:03.795Z,20.2
2023-01-13T04:40:05.256Z,20.2
2023-01-13T04:41:06.657Z,20.1
2023-01-13T04:42:08.081Z,20.1
2023-01-13T04:43:09.564Z,20.2
2023-01-13T04:44:10.994Z,20.1
2023-01-13T04:45:12.387Z,20.2
2023-01-13T04:46:13.795Z,20.3
2023-01-13T04:47:15.416Z,20.2
2023-01-13T04:48:16.827Z,20.3
2023-01-13T04:49:18.221Z,20.2
2023-01-13T04:50:19.624Z,20.1
2023-01-13T04:51:21.071Z,20.3
2023-01-13T04:52:22.473Z,20.4
2023-01-13T04:53:23.919Z,20.1
2023-01-13T04:54:25.343Z,20.1
2023-01-13T04:55:26.772Z,19.8
2023-01-13T04:56:28.166Z,19.6
2023-01-13T04:57:29.538Z,19.4
2023-01-13T04:58:30.964Z,19.3
2023-01-13T04:59:34.452Z,19.3
2023-01-13T05:00:36.036Z,19.1
2023-01-13T05:01:37.628Z,19.1
2023-01-13T05:02:39.389Z,19.1
2023-01-13T05:03:40.815Z,19
2023-01-13T05:04:42.263Z,18.9
2023-01-13T05:05:43.760Z,19.1
2023-01-13T05:06:45.167Z,18.9
2023-01-13T05:07:46.584Z,18.8
2023-01-13T05:08:47.990Z,18.7
2023-01-13T05:09:49.464Z,18.8
2023-01-13T05:10:50.888Z,18.8
2023-01-13T05:11:52.293Z,18.8
2023-01-13T05:12:53.731Z,18.6
2023-01-13T05:13:55.128Z,18.6
2023-01-13T05:14:56.532Z,18.6
2023-01-13T05:15:58.007Z,18.6
2023-01-13T05:16:59.534Z,18.6
2023-01-13T05:18:00.929Z,18.6
2023-01-13T05:19:02.370Z,18.5
2023-01-13T05:20:03.805Z,18.5
2023-01-13T05:21:05.209Z,18.4
2023-01-13T05:22:06.598Z,18.5
2023-01-13T05:23:07.982Z,18.4
2023-01-13T05:24:09.414Z,18.3
2023-01-13T05:25:10.855Z,18.4
2023-01-13T05:26:12.302Z,18.5
2023-01-13T05:27:13.692Z,18.4
2023-01-13T05:28:15.066Z,18.4
2023-01-13T05:29:16.446Z,18.3
2023-01-13T05:30:17.833Z,18.4
2023-01-13T05:31:19.324Z,18.2
2023-01-13T05:32:21.020Z,18.3
2023-01-13T05:33:22.411Z,18.3
2023-01-13T05:34:23.817Z,18.2
2023-01-13T05:35:25.221Z,18.2
2023-01-13T05:36:26.681Z,18.2
2023-01-13T05:37:28.252Z,18.1
2023-01-13T05:38:29.647Z,18.2
2023-01-13T05:39:31.130Z,18.1
2023-01-13T05:40:32.601Z,18.2
2023-01-13T05:41:34.056Z,18.1
2023-01-13T05:42:35.450Z,18.1
2023-01-13T05:43:36.863Z,18.1
2023-01-13T05:44:38.265Z,18.1
2023-01-13T05:45:39.689Z,18.1
2023-01-13T05:46:41.201Z,18.1
2023-01-13T05:47:42.849Z,18.1
2023-01-13T05:48:44.282Z,18.1
2023-01-13T05:49:45.711Z,18
2023-01-13T05:50:47.124Z,18.2
2023-01-13T05:51:48.516Z,18.1
2023-01-13T05:52:49.909Z,18.1
2023-01-13T05:53:51.343Z,18.1
2023-01-13T05:54:52.745Z,18.1
2023-01-13T05:55:54.189Z,18
2023-01-13T05:56:55.625Z,18.1
2023-01-13T05:57:57.035Z,18.1
2023-01-13T05:58:58.428Z,18
2023-01-13T05:59:59.821Z,18
2023-01-13T06:01:01.318Z,18.1
2023-01-13T06:02:03.002Z,18.2
2023-01-13T06:03:04.499Z,18.2
2023-01-13T06:04:06.195Z,18.1
2023-01-13T06:05:07.862Z,18.1
2023-01-13T06:06:09.322Z,17.9
2023-01-13T06:07:10.770Z,17.9
2023-01-13T06:08:12.190Z,18.1
2023-01-13T06:09:13.588Z,18.1
2023-01-13T06:10:14.992Z,18.1
2023-01-13T06:11:16.401Z,18.1
2023-01-13T06:12:17.856Z,18
2023-01-13T06:13:19.309Z,18
2023-01-13T06:14:20.702Z,18.1
2023-01-13T06:15:22.116Z,18.1
2023-01-13T06:16:23.509Z,18
2023-01-13T06:17:24.932Z,18.1
2023-01-13T06:18:26.344Z,17.9
2023-01-13T06:19:27.798Z,18
2023-01-13T06:20:29.221Z,18
2023-01-13T06:21:32.999Z,18.1
2023-01-13T06:22:34.706Z,17.9
2023-01-13T06:23:36.208Z,18
2023-01-13T06:24:37.627Z,17.9
2023-01-13T06:25:39.058Z,18
2023-01-13T06:26:40.498Z,17.9
2023-01-13T06:27:41.920Z,17.9
2023-01-13T06:28:43.344Z,17.9
2023-01-13T06:29:44.771Z,17.9
2023-01-13T06:30:46.197Z,17.9
2023-01-13T06:31:47.625Z,17.8
2023-01-13T06:32:49.217Z,17.9
2023-01-13T06:33:50.650Z,17.9
2023-01-13T06:34:52.393Z,18
2023-01-13T06:35:53.805Z,18
2023-01-13T06:36:55.227Z,17.9
2023-01-13T06:37:56.641Z,17.9
2023-01-13T06:38:58.028Z,17.8
2023-01-13T06:39:59.438Z,17.6
2023-01-13T06:41:00.813Z,17.8
2023-01-13T06:42:02.246Z,17.8
2023-01-13T06:43:03.676Z,17.7
2023-01-13T06:44:05.060Z,17.8
2023-01-13T06:45:06.476Z,17.7
2023-01-13T06:46:07.895Z,17.8
2023-01-13T06:47:09.331Z,17.7
2023-01-13T06:48:10.723Z,17.9
2023-01-13T06:49:12.113Z,17.7
2023-01-13T06:50:13.510Z,17.8
2023-01-13T06:51:14.882Z,17.6
2023-01-13T06:52:16.285Z,17.6
2023-01-13T06:53:17.688Z,17.6
2023-01-13T06:54:19.098Z,17.8
2023-01-13T06:55:20.496Z,17.7
2023-01-13T06:56:21.903Z,17.9
2023-01-13T06:57:23.292Z,17.7
2023-01-13T06:58:24.734Z,17.8
2023-01-13T06:59:26.114Z,17.7
2023-01-13T07:00:27.508Z,17.9
2023-01-13T07:01:29.053Z,17.9
2023-01-13T07:02:30.691Z,17.9
2023-01-13T07:03:32.168Z,17.8
2023-01-13T07:04:33.591Z,17.7
2023-01-13T07:05:35.012Z,17.8
2023-01-13T07:06:36.438Z,17.7
2023-01-13T07:07:37.848Z,17.7
2023-01-13T07:08:39.252Z,17.7
2023-01-13T07:09:40.635Z,17.6
2023-01-13T07:10:42.029Z,17.6
2023-01-13T07:11:43.411Z,17.6
2023-01-13T07:12:44.867Z,17.7
2023-01-13T07:13:46.311Z,17.7
2023-01-13T07:14:47.719Z,17.7
2023-01-13T07:15:49.114Z,17.7
2023-01-13T07:16:50.520Z,17.7
2023-01-13T07:17:51.978Z,17.6
2023-01-13T07:18:53.361Z,17.7
2023-01-13T07:19:54.754Z,17.7
2023-01-13T07:20:56.136Z,17.8
2023-01-13T07:21:57.545Z,17.7
2023-01-13T07:22:58.995Z,17.6
2023-01-13T07:24:00.388Z,17.6
2023-01-13T07:25:01.824Z,17.5
2023-01-13T07:26:03.223Z,17.6
2023-01-13T07:27:04.617Z,17.6
2023-01-13T07:28:06.084Z,17.6
2023-01-13T07:29:07.492Z,17.4
2023-01-13T07:30:08.897Z,17.7
2023-01-13T07:31:10.293Z,17.6
2023-01-13T07:32:11.763Z,17.7
2023-01-13T07:33:13.195Z,17.6
2023-01-13T07:34:14.604Z,17.7
2023-01-13T07:35:16.017Z,17.7
2023-01-13T07:36:17.394Z,17.9
2023-01-13T07:37:18.798Z,17.8
2023-01-13T07:38:20.214Z,17.7
2023-01-13T07:39:21.611Z,17.6
2023-01-13T07:40:23.149Z,17.7
2023-01-13T07:41:24.567Z,17.6
2023-01-13T07:42:25.982Z,17.6
2023-01-13T07:43:27.421Z,17.7
2023-01-13T07:44:28.902Z,17.7
2023-01-13T07:45:30.342Z,17.7
2023-01-13T07:46:31.893Z,17.7
2023-01-13T07:47:33.286Z,17.7
2023-01-13T07:48:34.702Z,17.8
2023-01-13T07:49:36.160Z,17.6
2023-01-13T07:50:37.580Z,17.6
2023-01-13T07:51:39.000Z,17.6
2023-01-13T07:52:40.423Z,17.8
2023-01-13T07:53:41.857Z,17.8
2023-01-13T07:54:43.414Z,17.6
2023-01-13T07:55:44.871Z,17.7
2023-01-13T07:56:46.285Z,17.7
2023-01-13T07:57:47.716Z,17.7
2023-01-13T07:58:49.173Z,17.6
2023-01-13T07:59:50.612Z,17.7
2023-01-13T08:00:52.101Z,17.7
2023-01-13T08:01:53.977Z,17.6
2023-01-13T08:02:56.039Z,17.6
2023-01-13T08:03:57.802Z,17.6
2023-01-13T08:04:59.226Z,17.8
2023-01-13T08:06:00.624Z,17.6
2023-01-13T08:07:02.054Z,17.8
2023-01-13T08:08:03.544Z,17.6
2023-01-13T08:09:04.950Z,17.6
2023-01-13T08:10:06.550Z,17.6
2023-01-13T08:11:07.973Z,17.6
2023-01-13T08:12:09.387Z,17.6
2023-01-13T08:13:10.961Z,17.6
2023-01-13T08:14:12.431Z,17.7
2023-01-13T08:15:13.876Z,17.6
2023-01-13T08:16:15.287Z,17.6
2023-01-13T08:17:18.676Z,17.6
2023-01-13T08:18:22.134Z,17.6
2023-01-13T08:19:23.806Z,17.6
2023-01-13T08:20:25.233Z,17.7
2023-01-13T08:21:26.896Z,17.6
2023-01-13T08:22:28.316Z,17.6
2023-01-13T08:23:29.766Z,17.6
2023-01-13T08:24:31.172Z,17.6
2023-01-13T08:25:32.606Z,17.5
2023-01-13T08:26:34.018Z,17.6
2023-01-13T08:27:35.442Z,17.8
2023-01-13T08:28:36.857Z,17.7
2023-01-13T08:29:38.280Z,17.7
2023-01-13T08:30:39.803Z,17.8
2023-01-13T08:31:41.323Z,17.7
2023-01-13T08:32:42.851Z,17.7
2023-01-13T08:33:44.254Z,17.8
2023-01-13T08:34:45.691Z,17.8
2023-01-13T08:35:47.075Z,17.6
2023-01-13T08:36:48.483Z,17.7
2023-01-13T08:37:49.873Z,17.8
2023-01-13T08:38:51.293Z,17.9
2023-01-13T08:39:52.700Z,17.6
2023-01-13T08:40:54.113Z,17.7
2023-01-13T08:41:55.524Z,17.8
2023-01-13T08:42:56.935Z,17.9
2023-01-13T08:43:58.328Z,17.8
2023-01-13T08:44:59.772Z,17.8
2023-01-13T08:46:01.259Z,17.8
2023-01-13T08:47:02.833Z,17.7
2023-01-13T08:48:04.241Z,17.8
2023-01-13T08:49:05.812Z,17.7
2023-01-13T08:50:07.268Z,17.9
2023-01-13T08:51:08.668Z,17.8
2023-01-13T08:52:10.193Z,17.8
2023-01-13T08:53:11.619Z,17.9
2023-01-13T08:54:13.210Z,17.9
2023-01-13T08:55:14.612Z,17.9
2023-01-13T08:56:16.027Z,17.9
2023-01-13T08:57:17.468Z,18
2023-01-13T08:58:18.961Z,18.1
2023-01-13T08:59:20.518Z,18.1
2023-01-13T09:00:21.962Z,17.9
2023-01-13T09:01:23.544Z,18
2023-01-13T09:02:25.201Z,17.9
2023-01-13T09:03:26.785Z,17.8
2023-01-13T09:04:28.198Z,17.9
2023-01-13T09:05:29.791Z,18
2023-01-13T09:06:31.217Z,18.1
2023-01-13T09:07:32.608Z,18.1
2023-01-13T09:08:34.163Z,18.1
2023-01-13T09:09:35.595Z,18.1
2023-01-13T09:10:37.107Z,18.1
2023-01-13T09:11:38.561Z,18.1
2023-01-13T09:12:39.984Z,18.2
2023-01-13T09:13:41.421Z,18.3
2023-01-13T09:14:42.823Z,18.1
2023-01-13T09:15:44.337Z,18.1
2023-01-13T09:16:45.851Z,18
2023-01-13T09:17:47.273Z,18.1
2023-01-13T09:18:48.694Z,18.1
2023-01-13T09:19:50.125Z,18.1
2023-01-13T09:20:51.549Z,18
2023-01-13T09:21:52.932Z,18.1
2023-01-13T09:22:54.468Z,18.1
2023-01-13T09:23:55.866Z,18.1
2023-01-13T09:24:57.310Z,18.1
2023-01-13T09:25:58.723Z,18.1
2023-01-13T09:27:00.127Z,18.1
2023-01-13T09:28:01.550Z,18.1
2023-01-13T09:29:02.991Z,18
2023-01-13T09:30:04.419Z,18.1
2023-01-13T09:31:05.926Z,18
2023-01-13T09:32:07.631Z,18
2023-01-13T09:33:09.064Z,18.1
2023-01-13T09:34:10.492Z,18.1
2023-01-13T09:35:11.914Z,18.1
2023-01-13T09:36:13.322Z,18.1
2023-01-13T09:37:14.802Z,18
2023-01-13T09:38:16.227Z,17.9
2023-01-13T09:39:17.613Z,18.1
2023-01-13T09:40:19.070Z,18.1
2023-01-13T09:41:20.482Z,18.1
2023-01-13T09:42:21.889Z,18.1
2023-01-13T09:43:23.293Z,18
2023-01-13T09:44:24.718Z,18
2023-01-13T09:45:26.142Z,18.1
2023-01-13T09:46:27.689Z,18
2023-01-13T09:47:29.445Z,18
2023-01-13T09:48:30.839Z,18.1
2023-01-13T09:49:32.241Z,18.1
2023-01-13T09:50:33.636Z,18.1
2023-01-13T09:51:35.073Z,18.1
2023-01-13T09:52:36.680Z,18.1
2023-01-13T09:53:38.095Z,18.2
2023-01-13T09:54:39.630Z,18.1
2023-01-13T09:55:41.063Z,18.1
2023-01-13T09:56:42.463Z,18.1
2023-01-13T09:57:43.903Z,18
2023-01-13T09:58:45.355Z,17.9
2023-01-13T09:59:46.742Z,18
2023-01-13T10:00:48.141Z,18
2023-01-13T10:01:49.578Z,17.9
2023-01-13T10:02:51.012Z,18
2023-01-13T10:03:52.478Z,18.1
2023-01-13T10:04:54.091Z,18
2023-01-13T10:05:55.700Z,17.7
2023-01-13T10:06:57.095Z,17.7
2023-01-13T10:07:58.525Z,17.6
2023-01-13T10:08:59.989Z,17.7
2023-01-13T10:10:01.401Z,17.7
2023-01-13T10:11:02.794Z,17.6
2023-01-13T10:12:04.200Z,17.7
2023-01-13T10:13:05.623Z,17.8
2023-01-13T10:14:07.038Z,17.9
2023-01-13T10:15:08.429Z,18
2023-01-13T10:16:09.922Z,18.1
2023-01-13T10:17:11.687Z,18
2023-01-13T10:18:13.206Z,18
2023-01-13T10:19:14.610Z,17.9
2023-01-13T10:20:16.024Z,18
2023-01-13T10:21:17.418Z,17.9
2023-01-13T10:22:18.834Z,18
2023-01-13T10:23:20.282Z,18
2023-01-13T10:24:21.687Z,18
2023-01-13T10:25:23.119Z,17.9
2023-01-13T10:26:24.550Z,18
2023-01-13T10:27:26.163Z,17.8
2023-01-13T10:28:27.581Z,17.9
2023-01-13T10:29:29.016Z,17.9
2023-01-13T10:30:30.432Z,17.8
2023-01-13T10:31:31.890Z,17.8
2023-01-13T10:32:33.482Z,17.9
2023-01-13T10:33:34.912Z,17.9
2023-01-13T10:34:36.330Z,17.9
2023-01-13T10:35:37.708Z,17.9
2023-01-13T10:36:39.099Z,17.8
2023-01-13T10:37:40.514Z,17.9
2023-01-13T10:38:41.916Z,18
2023-01-13T10:39:43.336Z,17.9
2023-01-13T10:40:44.775Z,18
2023-01-13T10:41:46.155Z,17.9
2023-01-13T10:42:47.560Z,18
2023-01-13T10:43:48.951Z,17.9
2023-01-13T10:44:50.347Z,17.9
2023-01-13T10:45:51.733Z,17.9
2023-01-13T10:46:53.226Z,17.9
2023-01-13T10:47:54.900Z,17.8
2023-01-13T10:48:56.336Z,17.9
2023-01-13T10:49:57.729Z,17.8
2023-01-13T10:50:59.135Z,17.9
2023-01-13T10:52:00.573Z,17.8
2023-01-13T10:53:02.177Z,17.8
2023-01-13T10:54:03.608Z,17.8
2023-01-13T10:55:05.004Z,17.8
2023-01-13T10:56:06.406Z,17.9
2023-01-13T10:57:07.791Z,17.9
2023-01-13T10:58:09.206Z,17.9
2023-01-13T10:59:10.646Z,17.8
2023-01-13T11:00:12.066Z,17.8
2023-01-13T11:01:13.586Z,17.8
2023-01-13T11:02:25.149Z,17.9
2023-01-13T11:03:28.277Z,17.9
2023-01-13T11:04:29.808Z,17.8
2023-01-13T11:05:31.454Z,17.8
2023-01-13T11:06:32.963Z,17.8
2023-01-13T11:07:34.357Z,17.7
2023-01-13T11:08:35.758Z,17.7
2023-01-13T11:09:37.171Z,17.6
2023-01-13T11:10:38.725Z,17.6
2023-01-13T11:11:40.132Z,17.6
2023-01-13T11:12:41.592Z,17.6
2023-01-13T11:13:43.005Z,17.8
2023-01-13T11:14:44.491Z,17.8
2023-01-13T11:15:45.981Z,17.9
2023-01-13T11:16:53.398Z,17.9
2023-01-13T11:17:55.364Z,17.9
2023-01-13T11:18:56.790Z,17.8
2023-01-13T11:19:58.254Z,17.9
2023-01-13T11:20:59.692Z,17.7
2023-01-13T11:22:01.111Z,17.8
2023-01-13T11:23:02.519Z,17.8
2023-01-13T11:24:03.933Z,17.7
2023-01-13T11:25:05.383Z,17.7
2023-01-13T11:26:06.789Z,17.9
2023-01-13T11:27:08.227Z,17.7
2023-01-13T11:28:09.634Z,17.8
2023-01-13T11:29:11.040Z,17.6
2023-01-13T11:30:12.441Z,17.7
2023-01-13T11:31:13.919Z,17.9
2023-01-13T11:32:15.561Z,17.8
2023-01-13T11:33:16.995Z,17.7
2023-01-13T11:34:18.449Z,17.8
2023-01-13T11:35:19.886Z,17.8
2023-01-13T11:36:21.310Z,17.8
2023-01-13T11:37:22.741Z,17.7
2023-01-13T11:38:24.216Z,17.7
2023-01-13T11:39:25.678Z,17.7
2023-01-13T11:40:27.264Z,17.9
2023-01-13T11:41:28.693Z,17.7
2023-01-13T11:42:30.130Z,17.9
2023-01-13T11:43:31.538Z,17.7
2023-01-13T11:44:32.945Z,17.8
2023-01-13T11:45:34.325Z,17.8
2023-01-13T11:46:35.741Z,17.8
2023-01-13T11:47:37.349Z,17.7
2023-01-13T11:48:38.763Z,17.7
2023-01-13T11:49:40.186Z,17.8
2023-01-13T11:50:41.640Z,17.9
2023-01-13T11:51:43.052Z,17.8
2023-01-13T11:52:44.655Z,17.7
2023-01-13T11:53:46.111Z,17.8
2023-01-13T11:54:47.522Z,17.6
2023-01-13T11:55:48.915Z,17.7
2023-01-13T11:56:50.299Z,17.7
2023-01-13T11:57:51.691Z,17.7
2023-01-13T11:58:53.127Z,17.7
2023-01-13T11:59:54.539Z,17.7
2023-01-13T12:00:55.965Z,17.7
2023-01-13T12:01:57.589Z,17.8
2023-01-13T12:02:59.076Z,17.7
2023-01-13T12:04:00.588Z,17.7
2023-01-13T12:05:02.037Z,17.8
2023-01-13T12:06:03.484Z,17.8
2023-01-13T12:07:04.913Z,17.6
2023-01-13T12:08:06.311Z,17.6
2023-01-13T12:09:07.719Z,17.7
2023-01-13T12:10:13.172Z,17.8
2023-01-13T12:11:15.304Z,17.7
2023-01-13T12:12:16.697Z,17.7
2023-01-13T12:13:18.144Z,17.8
2023-01-13T12:14:19.590Z,17.8
2023-01-13T12:15:20.994Z,17.9
2023-01-13T12:16:22.453Z,17.8
2023-01-13T12:17:23.940Z,17.8
2023-01-13T12:18:25.323Z,17.8
2023-01-13T12:19:26.742Z,17.8
2023-01-13T12:20:28.302Z,17.8
2023-01-13T12:21:29.747Z,17.7
2023-01-13T12:22:31.149Z,17.7
2023-01-13T12:23:32.556Z,17.6
2023-01-13T12:24:34.016Z,17.7
2023-01-13T12:25:35.410Z,17.8
2023-01-13T12:26:36.845Z,17.8
2023-01-13T12:27:38.248Z,17.7
2023-01-13T12:28:39.830Z,17.8
2023-01-13T12:29:41.290Z,17.9
2023-01-13T12:30:42.700Z,17.7
2023-01-13T12:31:44.224Z,17.7
2023-01-13T12:32:45.849Z,17.8
2023-01-13T12:33:47.255Z,17.7
2023-01-13T12:34:48.663Z,17.8
2023-01-13T12:35:50.128Z,17.7
2023-01-13T12:36:51.532Z,17.7
2023-01-13T12:37:52.925Z,17.6
2023-01-13T12:38:54.340Z,17.6
2023-01-13T12:39:55.721Z,17.7
2023-01-13T12:40:57.136Z,17.7
2023-01-13T12:41:58.547Z,17.8
2023-01-13T12:42:59.931Z,17.8
2023-01-13T12:44:01.364Z,17.8
2023-01-13T12:45:02.788Z,17.9
2023-01-13T12:46:04.234Z,17.7
2023-01-13T12:47:05.923Z,17.7
2023-01-13T12:48:07.350Z,17.8
2023-01-13T12:49:08.779Z,17.8
2023-01-13T12:50:10.223Z,17.6
2023-01-13T12:51:11.665Z,17.8
2023-01-13T12:52:13.087Z,17.8
2023-01-13T12:53:14.501Z,17.7
2023-01-13T12:54:15.935Z,17.8
2023-01-13T12:55:17.321Z,17.7
2023-01-13T12:56:18.774Z,17.6
2023-01-13T12:57:20.256Z,17.6
2023-01-13T12:58:21.671Z,17.6
2023-01-13T12:59:23.141Z,17.7
2023-01-13T13:00:24.559Z,17.6
2023-01-13T13:01:26.095Z,17.6
2023-01-13T13:02:27.774Z,17.7
2023-01-13T13:03:29.380Z,17.6
2023-01-13T13:04:30.803Z,17.6
2023-01-13T13:05:32.218Z,17.7
2023-01-13T13:06:33.654Z,17.7
2023-01-13T13:07:35.112Z,17.6
2023-01-13T13:08:36.515Z,17.7
2023-01-13T13:09:37.938Z,17.7
2023-01-13T13:10:39.348Z,17.6
2023-01-13T13:11:40.784Z,17.6
2023-01-13T13:12:42.222Z,17.6
2023-01-13T13:13:43.623Z,17.6
2023-01-13T13:14:45.061Z,17.6
2023-01-13T13:15:46.529Z,17.6
2023-01-13T13:16:47.964Z,17.6
2023-01-13T13:17:49.552Z,17.6
2023-01-13T13:18:50.986Z,17.6
2023-01-13T13:19:52.392Z,17.6
2023-01-13T13:20:53.815Z,17.6
2023-01-13T13:21:55.438Z,17.6
2023-01-13T13:22:56.877Z,17.6
2023-01-13T13:23:58.293Z,17.6
2023-01-13T13:24:59.817Z,17.6
2023-01-13T13:26:01.248Z,17.6
2023-01-13T13:27:03.704Z,17.6
2023-01-13T13:28:05.161Z,17.6
2023-01-13T13:29:06.546Z,17.6
2023-01-13T13:30:07.968Z,17.6
2023-01-13T13:31:09.477Z,17.6
2023-01-13T13:32:11.033Z,17.7
2023-01-13T13:33:12.427Z,17.6
2023-01-13T13:34:13.831Z,17.6
2023-01-13T13:35:15.244Z,17.6
2023-01-13T13:36:16.682Z,17.6
2023-01-13T13:37:18.100Z,17.7
2023-01-13T13:38:19.555Z,17.6
2023-01-13T13:39:20.946Z,17.6
2023-01-13T13:40:22.885Z,17.6
2023-01-13T13:41:24.291Z,17.5
2023-01-13T13:42:25.707Z,17.6
2023-01-13T13:43:27.119Z,17.6
2023-01-13T13:44:28.516Z,17.6